createdAt,value
2022-09-06T00:01:11.967Z,63.37
2022-09-06T00:03:40.131Z,62.50
2022-09-06T00:06:12.791Z,62.90
2022-09-06T00:08:40.516Z,63.35
2022-09-06T00:11:08.528Z,62.97
2022-09-06T00:13:36.316Z,63.02
2022-09-06T00:16:09.441Z,62.95
2022-09-06T00:18:38.439Z,62.48
2022-09-06T00:21:13.322Z,63.43
2022-09-06T00:23:40.891Z,63.02
2022-09-06T00:26:08.496Z,63.73
2022-09-06T00:28:36.074Z,63.85
2022-09-06T00:31:09.623Z,63.87
2022-09-06T00:33:38.585Z,63.36
2022-09-06T00:36:06.418Z,63.12
2022-09-06T00:38:33.966Z,62.88
2022-09-06T00:41:01.476Z,62.65
2022-09-06T00:43:29.378Z,62.88
2022-09-06T00:45:57.261Z,64.43
2022-09-06T00:48:25.428Z,65.00
2022-09-06T00:50:56.276Z,64.43
2022-09-06T00:53:24.501Z,64.31
2022-09-06T00:55:52.110Z,63.58
2022-09-06T00:58:19.732Z,63.15
2022-09-06T01:00:47.350Z,62.81
2022-09-06T01:03:15.195Z,62.61
2022-09-06T01:05:54.330Z,61.51
2022-09-06T01:08:31.656Z,60.12
2022-09-06T01:11:09.881Z,59.91
2022-09-06T01:13:44.388Z,59.45
2022-09-06T01:16:19.179Z,59.45
2022-09-06T01:19:15.826Z,59.51
2022-09-06T01:21:48.734Z,58.96
2022-09-06T01:24:43.529Z,57.81
2022-09-06T01:27:35.534Z,57.36
2022-09-06T01:30:07.159Z,57.04
2022-09-06T01:32:41.605Z,57.60
2022-09-06T01:35:16.455Z,57.66
2022-09-06T01:37:44.128Z,57.51
2022-09-06T01:40:11.797Z,57.32
2022-09-06T01:42:40.393Z,57.34
2022-09-06T01:45:12.313Z,57.33
2022-09-06T01:47:47.046Z,56.83
2022-09-06T01:50:40.415Z,56.97
2022-09-06T01:53:17.934Z,57.56
2022-09-06T01:55:49.750Z,59.17
2022-09-06T01:58:45.338Z,59.88
2022-09-06T02:01:21.222Z,57.83
2022-09-06T02:03:53.543Z,54.90
2022-09-06T02:06:23.540Z,55.11
2022-09-06T02:08:54.421Z,54.50
2022-09-06T02:11:23.212Z,54.20
2022-09-06T02:13:53.332Z,54.68
2022-09-06T02:16:24.581Z,54.96
2022-09-06T02:18:53.804Z,55.62
2022-09-06T02:21:24.642Z,55.67
2022-09-06T02:23:53.310Z,56.00
2022-09-06T02:26:23.134Z,56.40
2022-09-06T02:28:50.868Z,56.51
2022-09-06T02:31:22.817Z,56.23
2022-09-06T02:33:51.933Z,56.21
2022-09-06T02:36:20.069Z,56.97
2022-09-06T02:38:48.063Z,56.32
2022-09-06T02:41:16.683Z,56.32
2022-09-06T02:43:44.325Z,56.58
2022-09-06T02:46:12.543Z,56.28
2022-09-06T02:48:42.071Z,56.02
2022-09-06T02:51:10.347Z,56.30
2022-09-06T02:53:38.300Z,56.23
2022-09-06T02:56:06.375Z,55.64
2022-09-06T02:58:34.137Z,55.39
2022-09-06T03:01:02.136Z,55.29
2022-09-06T03:03:29.841Z,55.35
2022-09-06T03:05:59.298Z,55.91
2022-09-06T03:08:29.413Z,56.10
2022-09-06T03:10:57.596Z,55.98
2022-09-06T03:13:25.470Z,56.58
2022-09-06T03:15:53.851Z,57.08
2022-09-06T03:18:21.664Z,57.21
2022-09-06T03:20:50.003Z,57.55
2022-09-06T03:23:19.039Z,58.78
2022-09-06T03:25:46.634Z,60.43
2022-09-06T03:28:14.646Z,62.15
2022-09-06T03:30:45.660Z,65.47
2022-09-06T03:33:13.302Z,65.90
2022-09-06T03:35:41.867Z,64.50
2022-09-06T03:38:09.485Z,61.65
2022-09-06T03:40:38.454Z,59.94
2022-09-06T03:43:06.132Z,60.83
2022-09-06T03:45:33.682Z,62.21
2022-09-06T03:48:01.254Z,63.30
2022-09-06T03:50:28.745Z,63.83
2022-09-06T03:52:56.218Z,65.06
2022-09-06T03:55:23.690Z,64.27
2022-09-06T03:57:52.540Z,64.86
2022-09-06T04:00:20.267Z,66.03
2022-09-06T04:02:47.813Z,66.01
2022-09-06T04:05:16.507Z,65.75
2022-09-06T04:07:44.229Z,65.11
2022-09-06T04:10:11.861Z,63.32
2022-09-06T04:12:39.365Z,61.47
2022-09-06T04:15:09.530Z,61.74
2022-09-06T04:17:37.066Z,62.07
2022-09-06T04:20:05.323Z,63.05
2022-09-06T04:22:32.810Z,64.71
2022-09-06T04:25:01.344Z,63.96
2022-09-06T04:27:28.829Z,63.72
2022-09-06T04:29:56.526Z,62.83
2022-09-06T04:32:25.477Z,64.14
2022-09-06T04:34:53.197Z,64.44
2022-09-06T04:37:20.705Z,63.62
2022-09-06T04:39:48.457Z,63.89
2022-09-06T04:42:16.548Z,64.29
2022-09-06T04:44:44.028Z,64.72
2022-09-06T04:47:14.743Z,64.53
2022-09-06T04:49:43.820Z,64.80
2022-09-06T04:52:11.606Z,65.53
2022-09-06T04:54:39.240Z,64.19
2022-09-06T04:57:07.027Z,62.59
2022-09-06T04:59:34.555Z,63.31
2022-09-06T05:02:02.138Z,62.61
2022-09-06T05:04:29.657Z,63.91
2022-09-06T05:07:02.990Z,64.61
2022-09-06T05:09:30.474Z,63.78
2022-09-06T05:11:57.984Z,64.18
2022-09-06T05:14:25.519Z,64.03
2022-09-06T05:16:54.291Z,63.13
2022-09-06T05:19:21.995Z,62.43
2022-09-06T05:21:49.558Z,62.91
2022-09-06T05:24:18.455Z,64.02
2022-09-06T05:26:45.941Z,64.63
2022-09-06T05:29:13.412Z,64.75
2022-09-06T05:31:40.965Z,66.00
2022-09-06T05:34:08.511Z,66.72
2022-09-06T05:36:36.047Z,66.65
2022-09-06T05:39:03.714Z,66.70
2022-09-06T05:41:33.701Z,67.05
2022-09-06T05:44:01.184Z,66.33
2022-09-06T05:46:28.658Z,67.22
2022-09-06T05:48:58.004Z,68.01
2022-09-06T05:51:25.613Z,67.59
2022-09-06T05:53:53.118Z,66.80
2022-09-06T05:56:20.617Z,65.95
2022-09-06T05:58:49.459Z,66.03
2022-09-06T06:01:21.435Z,66.67
2022-09-06T06:03:52.697Z,66.29
2022-09-06T06:06:20.598Z,65.81
2022-09-06T06:08:48.297Z,65.88
2022-09-06T06:11:15.910Z,64.95
2022-09-06T06:13:43.813Z,65.57
2022-09-06T06:16:14.271Z,66.80
2022-09-06T06:18:41.989Z,66.58
2022-09-06T06:21:10.996Z,65.60
2022-09-06T06:23:38.894Z,66.16
2022-09-06T06:26:07.238Z,65.07
2022-09-06T06:28:35.913Z,65.10
2022-09-06T06:31:03.515Z,66.07
2022-09-06T06:33:32.538Z,67.17
2022-09-06T06:36:01.208Z,67.61
2022-09-06T06:38:32.731Z,67.35
2022-09-06T06:41:04.524Z,68.20
2022-09-06T06:43:37.480Z,68.35
2022-09-06T06:46:05.154Z,66.94
2022-09-06T06:48:34.023Z,66.71
2022-09-06T06:51:01.520Z,66.23
2022-09-06T06:53:29.009Z,68.10
2022-09-06T06:55:56.510Z,68.12
2022-09-06T06:58:24.029Z,67.12
2022-09-06T07:00:51.626Z,68.72
2022-09-06T07:03:19.489Z,68.80
2022-09-06T07:08:37.060Z,69.05
2022-09-06T07:11:05.004Z,68.51
2022-09-06T07:13:33.860Z,67.19
2022-09-06T07:16:09.163Z,67.56
2022-09-06T07:18:37.664Z,67.50
2022-09-06T07:24:10.740Z,67.18
2022-09-06T07:26:40.172Z,66.38
2022-09-06T07:29:08.678Z,65.91
2022-09-06T07:34:26.153Z,65.39
2022-09-06T07:36:54.987Z,65.62
2022-09-06T07:39:22.859Z,65.38
2022-09-06T07:41:50.351Z,65.18
2022-09-06T07:44:17.850Z,64.71
2022-09-06T07:46:45.432Z,64.89
2022-09-06T07:49:13.289Z,64.99
2022-09-06T07:51:40.768Z,64.98
2022-09-06T07:56:57.119Z,64.29
2022-09-06T07:59:24.740Z,64.33
2022-09-06T08:01:53.248Z,64.05
2022-09-06T08:04:20.791Z,63.79
2022-09-06T08:09:41.073Z,62.98
2022-09-06T08:12:09.365Z,63.30
2022-09-06T08:14:36.991Z,63.01
2022-09-06T08:17:04.693Z,63.07
2022-09-06T08:19:32.240Z,62.38
2022-09-06T08:21:59.842Z,62.01
2022-09-06T08:24:28.289Z,61.47
2022-09-06T08:26:57.205Z,62.03
2022-09-06T08:29:25.911Z,61.72
2022-09-06T08:31:53.461Z,61.34
2022-09-06T08:34:20.997Z,61.21
2022-09-06T08:36:48.492Z,60.62
2022-09-06T08:39:16.739Z,60.54
2022-09-06T08:41:50.034Z,60.62
2022-09-06T08:47:10.213Z,59.32
2022-09-06T08:49:39.808Z,59.60
2022-09-06T08:52:19.228Z,59.51
2022-09-06T08:54:50.024Z,59.23
2022-09-06T08:57:27.523Z,59.12
2022-09-06T09:00:01.108Z,58.38
2022-09-06T09:02:29.502Z,58.00
2022-09-06T09:05:01.718Z,57.30
2022-09-06T09:07:38.772Z,56.98
2022-09-06T09:10:09.813Z,56.55
2022-09-06T09:12:43.679Z,55.42
2022-09-06T09:15:15.719Z,55.61
2022-09-06T09:17:43.558Z,54.87
2022-09-06T09:20:11.562Z,53.39
2022-09-06T09:22:40.135Z,54.04
2022-09-06T09:25:09.208Z,54.29
2022-09-06T09:27:37.301Z,54.17
2022-09-06T09:32:56.153Z,53.44
2022-09-06T09:35:33.006Z,53.66
2022-09-06T09:38:08.061Z,53.36
2022-09-06T09:40:41.800Z,53.73
2022-09-06T09:43:12.656Z,53.56
2022-09-06T09:45:40.133Z,53.73
2022-09-06T09:48:26.942Z,52.74
2022-09-06T09:50:55.286Z,52.99
2022-09-06T09:53:24.816Z,53.57
2022-09-06T09:55:57.359Z,52.62
2022-09-06T09:58:33.936Z,52.45
2022-09-06T10:01:18.762Z,52.65
2022-09-06T10:09:33.318Z,52.14
2022-09-06T10:12:01.596Z,51.47
2022-09-06T10:14:31.408Z,51.82
2022-09-06T10:17:00.400Z,51.82
2022-09-06T10:19:39.794Z,50.72
2022-09-06T10:22:15.146Z,50.98
2022-09-06T10:24:56.220Z,51.15
2022-09-06T10:27:26.975Z,50.27
2022-09-06T10:29:58.316Z,50.69
2022-09-06T10:32:35.483Z,50.67
2022-09-06T10:35:28.275Z,49.50
2022-09-06T10:38:14.238Z,49.29
2022-09-06T10:40:48.093Z,49.74
2022-09-06T10:43:19.770Z,49.43
2022-09-06T10:45:55.623Z,48.09
2022-09-06T10:48:28.108Z,46.70
2022-09-06T10:50:59.505Z,46.99
2022-09-06T10:53:41.840Z,47.58
2022-09-06T10:56:12.391Z,47.31
2022-09-06T11:01:37.680Z,46.00
2022-09-06T11:04:12.734Z,46.46
2022-09-06T11:06:46.196Z,45.44
2022-09-06T11:09:17.927Z,46.14
2022-09-06T11:11:47.052Z,45.46
2022-09-06T11:14:15.405Z,45.45
2022-09-06T11:16:47.277Z,45.15
2022-09-06T11:19:19.078Z,44.08
2022-09-06T11:22:21.781Z,44.25
2022-09-06T11:25:09.255Z,44.01
2022-09-06T11:27:38.822Z,43.83
2022-09-06T11:30:07.434Z,42.97
2022-09-06T11:32:38.671Z,43.90
2022-09-06T11:35:10.020Z,45.14
2022-09-06T11:37:39.583Z,44.01
2022-09-06T11:40:31.332Z,44.03
2022-09-06T11:43:17.539Z,43.52
2022-09-06T11:45:50.132Z,43.79
2022-09-06T11:48:50.481Z,42.95
2022-09-06T11:51:36.246Z,43.35
2022-09-06T11:54:18.432Z,42.25
2022-09-06T11:56:54.517Z,42.09
2022-09-06T11:59:31.360Z,42.92
2022-09-06T12:02:03.395Z,41.82
2022-09-06T12:05:10.053Z,41.96
2022-09-06T12:07:38.518Z,41.49
2022-09-06T12:10:42.901Z,41.36
2022-09-06T12:13:42.961Z,40.62
2022-09-06T12:16:12.140Z,39.53
2022-09-06T12:18:59.359Z,40.63
2022-09-06T12:21:39.297Z,40.96
2022-09-06T12:24:08.728Z,40.01
2022-09-06T12:26:51.866Z,39.66
2022-09-06T12:29:26.793Z,39.49
2022-09-06T12:31:55.645Z,39.59
2022-09-06T12:34:25.862Z,38.29
2022-09-06T12:36:58.751Z,38.18
2022-09-06T12:39:26.643Z,38.09
2022-09-06T12:41:56.896Z,38.02
2022-09-06T12:44:32.317Z,38.53
2022-09-06T12:47:04.633Z,38.59
2022-09-06T12:49:32.486Z,37.88
2022-09-06T12:52:11.830Z,38.63
2022-09-06T12:54:47.561Z,37.87
2022-09-06T12:57:19.273Z,37.67
2022-09-06T12:59:55.819Z,38.12
2022-09-06T13:02:28.974Z,38.81
2022-09-06T13:05:02.309Z,38.65
2022-09-06T13:07:31.599Z,39.23
2022-09-06T13:09:59.402Z,37.63
2022-09-06T13:12:29.586Z,37.76
2022-09-06T13:15:00.937Z,38.09
2022-09-06T13:17:30.383Z,38.15
2022-09-06T13:19:59.859Z,37.70
2022-09-06T13:22:45.475Z,35.59
2022-09-06T13:25:20.836Z,36.86
2022-09-06T13:27:50.678Z,37.11
2022-09-06T13:30:33.999Z,37.15
2022-09-06T13:33:01.900Z,37.35
2022-09-06T13:35:31.622Z,37.18
2022-09-06T13:38:21.921Z,36.38
2022-09-06T13:41:10.982Z,35.83
2022-09-06T13:43:44.905Z,35.78
2022-09-06T13:46:13.858Z,36.15
2022-09-06T13:48:42.871Z,36.55
2022-09-06T13:51:11.029Z,35.87
2022-09-06T13:53:38.526Z,36.52
2022-09-06T13:56:08.715Z,35.34
2022-09-06T13:58:36.731Z,34.87
2022-09-06T14:01:08.421Z,35.17
2022-09-06T14:03:39.115Z,34.98
2022-09-06T14:06:07.693Z,34.75
2022-09-06T14:09:02.923Z,35.65
2022-09-06T14:11:24.141Z,35.33
2022-09-06T14:13:51.601Z,35.50
2022-09-06T14:16:19.185Z,36.63
2022-09-06T14:18:48.065Z,35.97
2022-09-06T14:21:15.537Z,35.09
2022-09-06T14:23:43.013Z,35.67
2022-09-06T14:26:11.930Z,34.62
2022-09-06T14:28:39.438Z,35.27
2022-09-06T14:31:13.563Z,35.34
2022-09-06T14:33:41.084Z,36.44
2022-09-06T14:36:11.852Z,36.29
2022-09-06T14:38:40.029Z,36.09
2022-09-06T14:41:08.790Z,35.89
2022-09-06T14:43:36.812Z,35.75
2022-09-06T14:46:06.056Z,36.03
2022-09-06T14:48:33.930Z,35.76
2022-09-06T14:51:08.792Z,36.06
2022-09-06T14:53:41.123Z,35.25
2022-09-06T14:56:09.008Z,35.77
2022-09-06T14:58:38.629Z,35.25
2022-09-06T15:01:11.621Z,34.65
2022-09-06T15:03:40.601Z,35.19
2022-09-06T15:06:09.112Z,36.16
2022-09-06T15:08:37.705Z,36.01
2022-09-06T15:11:08.195Z,36.34
2022-09-06T15:13:36.900Z,36.78
2022-09-06T15:16:05.121Z,37.14
2022-09-06T15:18:33.112Z,37.72
2022-09-06T15:21:09.670Z,37.83
2022-09-06T15:23:37.435Z,37.88
2022-09-06T15:26:07.702Z,37.39
2022-09-06T15:28:35.728Z,37.41
2022-09-06T15:31:03.342Z,38.16
2022-09-06T15:33:30.930Z,38.77
2022-09-06T15:35:58.630Z,37.74
2022-09-06T15:38:26.156Z,37.71
2022-09-06T15:40:53.617Z,38.85
2022-09-06T15:43:22.531Z,37.00
2022-09-06T15:45:51.634Z,37.63
2022-09-06T15:48:19.428Z,38.82
2022-09-06T15:50:51.647Z,38.33
2022-09-06T15:53:19.561Z,38.29
2022-09-06T15:56:00.543Z,38.69
2022-09-06T15:58:29.777Z,38.81
2022-09-06T16:01:02.002Z,39.07
2022-09-06T16:03:29.612Z,38.73
2022-09-06T16:08:53.308Z,39.79
2022-09-06T16:11:20.913Z,40.23
2022-09-06T16:13:50.105Z,39.69
2022-09-06T16:16:18.258Z,39.70
2022-09-06T16:18:47.783Z,36.71
2022-09-06T16:21:17.868Z,35.03
2022-09-06T16:23:49.979Z,34.64
2022-09-06T16:26:21.370Z,34.99
2022-09-06T16:28:51.429Z,35.51
2022-09-06T16:31:20.603Z,36.11
2022-09-06T16:33:48.839Z,36.77
2022-09-06T16:36:17.555Z,36.90
2022-09-06T16:38:45.762Z,37.73
2022-09-06T16:41:15.550Z,39.82
2022-09-06T16:43:43.631Z,41.82
2022-09-06T16:46:13.368Z,46.51
2022-09-06T16:48:41.513Z,49.12
2022-09-06T16:51:11.071Z,52.15
2022-09-06T16:53:40.409Z,55.87
2022-09-06T16:56:08.898Z,56.92
2022-09-06T16:58:36.746Z,59.51
2022-09-06T17:01:05.656Z,59.91
2022-09-06T17:03:45.417Z,59.99
2022-09-06T17:06:13.195Z,62.27
2022-09-06T17:08:40.851Z,61.69
2022-09-06T17:11:10.225Z,63.09
2022-09-06T17:13:38.663Z,64.58
2022-09-06T17:16:24.458Z,68.99
2022-09-06T17:18:54.362Z,69.53
2022-09-06T17:21:22.595Z,70.79
2022-09-06T17:23:50.761Z,70.96
2022-09-06T17:26:19.572Z,71.44
2022-09-06T17:28:47.245Z,71.76
2022-09-06T17:31:15.070Z,70.71
2022-09-06T17:33:47.304Z,74.62
2022-09-06T17:36:18.168Z,73.26
2022-09-06T17:38:52.719Z,73.90
2022-09-06T17:41:23.104Z,76.32
2022-09-06T17:43:50.814Z,72.30
2022-09-06T17:46:28.477Z,70.80
2022-09-06T17:48:56.416Z,69.33
2022-09-06T17:51:26.495Z,70.98
2022-09-06T17:53:54.561Z,73.08
2022-09-06T17:56:22.631Z,71.30
2022-09-06T17:58:55.050Z,69.09
2022-09-06T18:01:24.214Z,67.96
2022-09-06T18:03:52.646Z,67.50
2022-09-06T18:06:25.700Z,67.56
2022-09-06T18:08:56.902Z,68.86
2022-09-06T18:11:26.532Z,70.86
2022-09-06T18:13:56.926Z,71.65
2022-09-06T18:16:36.711Z,71.96
2022-09-06T18:19:06.350Z,71.94
2022-09-06T18:21:38.838Z,71.70
2022-09-06T18:24:14.034Z,71.93
2022-09-06T18:26:43.075Z,75.79
2022-09-06T18:29:16.957Z,77.49
2022-09-06T18:31:47.327Z,78.35
2022-09-06T18:34:45.125Z,79.37
2022-09-06T18:37:18.470Z,79.54
2022-09-06T18:40:44.370Z,78.11
2022-09-06T18:43:29.862Z,78.88
2022-09-06T18:46:04.317Z,75.41
2022-09-06T18:48:36.906Z,75.19
2022-09-06T18:51:30.617Z,76.27
2022-09-06T18:53:59.561Z,80.10
2022-09-06T18:56:29.170Z,80.22
2022-09-06T18:59:06.580Z,83.37
2022-09-06T19:01:37.015Z,83.51
2022-09-06T19:04:06.627Z,84.21
2022-09-06T19:06:36.074Z,83.48
2022-09-06T19:09:06.852Z,82.01
2022-09-06T19:11:53.154Z,81.41
2022-09-06T19:14:21.912Z,81.74
2022-09-06T19:16:57.584Z,80.83
2022-09-06T19:19:28.726Z,80.26
2022-09-06T19:22:05.616Z,81.71
2022-09-06T19:24:35.890Z,82.94
2022-09-06T19:27:05.773Z,83.99
2022-09-06T19:29:33.726Z,82.03
2022-09-06T19:32:01.852Z,81.56
2022-09-06T19:34:32.584Z,81.72
2022-09-06T19:37:00.334Z,82.48
2022-09-06T19:39:34.869Z,83.42
2022-09-06T19:42:14.381Z,84.30
2022-09-06T19:44:42.325Z,84.08
2022-09-06T19:47:12.496Z,82.68
2022-09-06T19:49:42.971Z,81.75
2022-09-06T19:52:26.300Z,81.72
2022-09-06T19:54:54.016Z,82.68
2022-09-06T19:57:23.200Z,82.19
2022-09-06T19:59:50.796Z,81.23
2022-09-06T20:02:21.293Z,83.73
2022-09-06T20:04:49.126Z,84.04
2022-09-06T20:07:16.934Z,84.82
2022-09-06T20:09:47.520Z,84.07
2022-09-06T20:12:17.235Z,84.55
2022-09-06T20:14:46.394Z,84.85
2022-09-06T20:17:32.931Z,84.67
2022-09-06T20:20:01.853Z,84.92
2022-09-06T20:22:29.465Z,84.12
2022-09-06T20:24:57.319Z,83.00
2022-09-06T20:27:27.477Z,82.66
2022-09-06T20:29:56.474Z,81.95
2022-09-06T20:32:24.073Z,83.55
2022-09-06T20:34:53.193Z,83.22
2022-09-06T20:37:21.774Z,83.17
2022-09-06T20:39:49.482Z,84.75
2022-09-06T20:42:17.279Z,84.61
2022-09-06T20:44:45.625Z,84.89
2022-09-06T20:47:14.678Z,85.76
2022-09-06T20:49:42.609Z,82.23
2022-09-06T20:52:10.307Z,82.71
2022-09-06T20:54:38.606Z,82.54
2022-09-06T20:57:06.558Z,82.27
2022-09-06T20:59:34.630Z,81.90
2022-09-06T21:02:02.703Z,80.81
2022-09-06T21:04:43.689Z,81.15
2022-09-06T21:07:11.463Z,81.78
2022-09-06T21:09:42.566Z,81.71
2022-09-06T21:12:10.157Z,81.68
2022-09-06T21:14:37.761Z,81.41
2022-09-06T21:17:05.467Z,81.75
2022-09-06T21:19:41.751Z,79.80
2022-09-06T21:22:11.388Z,79.54
2022-09-06T21:25:11.114Z,79.73
2022-09-06T21:28:03.281Z,79.21
2022-09-06T21:30:51.232Z,78.37
2022-09-06T21:33:31.093Z,79.24
2022-09-06T21:36:08.277Z,79.74
2022-09-06T21:38:39.051Z,77.47
2022-09-06T21:41:16.341Z,77.32
2022-09-06T21:43:49.288Z,76.81
2022-09-06T21:46:32.592Z,76.65
2022-09-06T21:49:17.163Z,76.28
2022-09-06T21:51:46.706Z,76.55
2022-09-06T21:54:17.128Z,76.97
2022-09-06T21:56:55.352Z,77.15
2022-09-06T21:59:29.164Z,77.95
2022-09-06T22:02:12.551Z,77.52
2022-09-06T22:04:57.640Z,77.44
2022-09-06T22:07:41.604Z,80.02
2022-09-06T22:10:18.007Z,81.98
2022-09-06T22:15:38.851Z,83.28
2022-09-06T22:18:54.773Z,83.49
2022-09-06T22:21:33.995Z,82.18
2022-09-06T22:24:14.331Z,81.33
2022-09-06T22:26:42.631Z,81.09
2022-09-06T22:29:12.138Z,83.98
2022-09-06T22:31:40.642Z,83.71
2022-09-06T22:34:08.727Z,82.98
2022-09-06T22:36:38.233Z,80.52
2022-09-06T22:39:06.263Z,81.10
2022-09-06T22:41:34.889Z,81.21
2022-09-06T22:44:03.123Z,83.49
2022-09-06T22:46:30.861Z,84.68
2022-09-06T22:48:58.584Z,84.91
2022-09-06T22:51:27.216Z,85.61
2022-09-06T22:53:56.160Z,86.56
2022-09-06T22:56:25.149Z,85.88
2022-09-06T22:58:52.711Z,85.79
2022-09-06T23:01:20.439Z,87.41
2022-09-06T23:03:48.086Z,87.64
2022-09-06T23:06:15.889Z,88.60
2022-09-06T23:08:43.974Z,89.07
2022-09-06T23:11:15.759Z,89.26
2022-09-06T23:13:44.164Z,89.79
2022-09-06T23:16:14.188Z,90.21
2022-09-06T23:18:41.845Z,90.43
2022-09-06T23:21:10.923Z,90.57
2022-09-06T23:23:39.199Z,89.96
2022-09-06T23:26:08.181Z,88.99
2022-09-06T23:28:37.582Z,87.24
2022-09-06T23:31:05.884Z,87.02
2022-09-06T23:33:35.040Z,87.66
2022-09-06T23:36:02.821Z,88.17
2022-09-06T23:38:30.490Z,87.11
2022-09-06T23:40:58.329Z,86.55
2022-09-06T23:43:25.879Z,86.22
2022-09-06T23:45:54.924Z,85.49
2022-09-06T23:48:22.698Z,84.89
2022-09-06T23:50:50.408Z,85.14
2022-09-06T23:53:19.035Z,85.26
2022-09-06T23:55:46.862Z,85.82
2022-09-06T23:58:14.393Z,86.36
